No data was retrieved for https://query.yahooapis.com/v1/public/yql?q=select+%2A+from+weather.forecast+where+woeid%3D731260&format=xml&u=c



METAR rapporten vliegvelden

   
EHAM - Amsterdam
Gewijzigd: 22-11-2019 00:25
Licht bewolkt  
Licht bewolkt  
   Wind: OZO 9.3 km/h
Wind: OZO 9.3 km/h
Temperatuur: 3°C
Voelt als: 1°C
Dauwpunt: 2°C
Vochtigheid: 93%
Barometer: 1004 hPa
Bewolking: Licht bewolkt
Zicht: 8 km
Bewolking: Licht bewolkt 3800 ft
EHAM 212325Z 11005KT 080V140 8000 FEW038 03/02 Q1004 BECMG 7000
EHBK - Maastricht
Gewijzigd: 22-11-2019 00:25
Gedeeltelijk bewolkt  
Gedeeltelijk bewolkt  
   Wind: ZZO 13 km/h
Wind: ZZO 13 km/h
Temperatuur: 6°C
Voelt als: 3°C
Dauwpunt: 3°C
Vochtigheid: 81%
Barometer: 1004 hPa
Bewolking: Gedeeltelijk bewolkt
Zicht: meer dan 10 km
Bewolking: Gedeeltelijk bewolkt
EHBK 212325Z AUTO 16007KT 9999 NSC 06/03 Q1004
ELLX - Luxemburg
Gewijzigd: 22-11-2019 00:20
Light Showers, Regen, Grotendeels bewolkt  
Light Showers, Regen, Grotendeels bewolkt  
   Wind: ZZO 5.6 km/h
Wind: ZZO 5.6 km/h
Temperatuur: 4°C
Voelt als: 3°C
Dauwpunt: 3°C
Vochtigheid: 93%
Barometer: 1006 hPa
Bewolking: Grotendeels bewolkt
Zicht: 6 km
Bewolking: Grotendeels bewolkt 3400 ft,
Grotendeels bewolkt 3800 ft,
Grotendeels bewolkt 4400 ft
ELLX 212320Z AUTO 16003KT 120V190 6000 -SHRA BKN034/// BKN038/// BKN044/// 04/03 Q1006 NOSIG
EDDL - Dusseldorf
Gewijzigd: 22-11-2019 00:20
Helder  
Helder  
   Wind: ZZO 22.2 km/h
Wind: ZZO 22.2 km/h
Temperatuur: 6°C
Voelt als: 2°C
Dauwpunt: 3°C
Vochtigheid: 81%
Barometer: 1006 hPa
Zicht: meer dan 10 km
Bewolking: Helder
EDDL 212320Z 15012KT CAVOK 06/03 Q1006 NOSIG
  

Script ontwikkeld door  Saratoga-weather.org Aangepast voor de template door  Weerstation Leuven